createdAt,value
2023-04-22T00:02:18.886Z,4.70
2023-04-22T00:04:49.293Z,5.50
2023-04-22T00:07:16.403Z,5.70
2023-04-22T00:09:42.446Z,5.10
2023-04-22T00:12:11.003Z,5.00
2023-04-22T00:14:37.346Z,5.60
2023-04-22T00:17:03.474Z,5.30
2023-04-22T00:19:29.966Z,5.00
2023-04-22T00:21:55.918Z,7.00
2023-04-22T00:24:21.789Z,5.10
2023-04-22T00:26:47.712Z,5.90
2023-04-22T00:29:13.557Z,6.80
2023-04-22T00:31:39.434Z,7.00
2023-04-22T00:34:05.409Z,6.70
2023-04-22T00:36:31.435Z,5.30
2023-04-22T00:38:57.364Z,6.20
2023-04-22T00:41:24.298Z,5.40
2023-04-22T00:43:52.784Z,5.30
2023-04-22T00:46:20.054Z,5.40
2023-04-22T00:48:46.315Z,5.20
2023-04-22T00:51:12.200Z,6.60
2023-04-22T00:53:39.289Z,6.10
2023-04-22T00:56:05.547Z,5.50
2023-04-22T00:58:32.656Z,5.90
2023-04-22T01:00:58.688Z,6.20
2023-04-22T01:03:27.805Z,6.30
2023-04-22T01:05:53.822Z,6.00
2023-04-22T01:08:20.514Z,10.50
2023-04-22T01:10:46.656Z,7.90
2023-04-22T01:13:12.546Z,6.70
2023-04-22T01:15:38.491Z,6.10
2023-04-22T01:18:04.994Z,6.40
2023-04-22T01:20:31.213Z,7.60
2023-04-22T01:23:02.780Z,10.10
2023-04-22T01:25:29.058Z,5.90
2023-04-22T01:27:55.636Z,6.60
2023-04-22T01:30:21.520Z,6.80
2023-04-22T01:32:47.736Z,6.30
2023-04-22T01:35:13.794Z,7.10
2023-04-22T01:37:39.943Z,6.70
2023-04-22T01:40:08.648Z,6.00
2023-04-22T01:42:35.366Z,5.20
2023-04-22T01:45:01.348Z,4.70
2023-04-22T01:47:27.211Z,6.10
2023-04-22T01:49:53.159Z,5.10
2023-04-22T01:52:20.452Z,4.60
2023-04-22T01:54:47.946Z,5.70
2023-04-22T01:57:15.745Z,5.90
2023-04-22T01:59:42.393Z,6.80
2023-04-22T02:02:08.618Z,6.10
2023-04-22T02:04:35.195Z,5.70
2023-04-22T02:07:01.306Z,5.20
2023-04-22T02:09:27.285Z,5.90
2023-04-22T02:11:53.152Z,6.20
2023-04-22T02:14:20.817Z,5.20
2023-04-22T02:16:46.732Z,6.20
2023-04-22T02:19:12.703Z,4.60
2023-04-22T02:21:39.285Z,4.80
2023-04-22T02:24:05.843Z,5.40
2023-04-22T02:26:31.750Z,5.60
2023-04-22T02:28:57.814Z,6.00
2023-04-22T02:31:25.127Z,5.20
2023-04-22T02:33:51.275Z,6.50
2023-04-22T02:36:17.556Z,4.20
2023-04-22T02:38:44.217Z,4.40
2023-04-22T02:41:10.103Z,5.50
2023-04-22T02:43:36.427Z,9.30
2023-04-22T02:46:02.288Z,4.90
2023-04-22T02:48:28.708Z,4.90
2023-04-22T02:50:54.565Z,4.70
2023-04-22T02:53:20.457Z,7.50
2023-04-22T02:55:46.374Z,5.80
2023-04-22T02:58:12.232Z,5.60
2023-04-22T03:00:38.129Z,5.50
2023-04-22T03:03:04.121Z,3.90
2023-04-22T03:05:33.322Z,4.40
2023-04-22T03:07:59.608Z,4.70
2023-04-22T03:10:25.765Z,4.20
2023-04-22T03:12:51.760Z,4.50
2023-04-22T03:15:21.076Z,4.20
2023-04-22T03:17:47.666Z,4.00
2023-04-22T03:20:14.533Z,5.70
2023-04-22T03:22:40.937Z,4.70
2023-04-22T03:25:09.816Z,5.60
2023-04-22T03:27:35.897Z,6.70
2023-04-22T03:30:04.018Z,4.30
2023-04-22T03:32:30.015Z,4.00
2023-04-22T03:35:11.789Z,7.10
2023-04-22T03:37:37.848Z,5.90
2023-04-22T03:40:06.668Z,6.30
2023-04-22T03:42:32.755Z,5.70
2023-04-22T03:44:58.793Z,8.20
2023-04-22T03:47:25.171Z,7.60
2023-04-22T03:49:54.676Z,7.40
2023-04-22T03:52:20.927Z,6.10
2023-04-22T03:54:52.583Z,5.60
2023-04-22T03:57:18.542Z,4.50
2023-04-22T03:59:44.592Z,4.90
2023-04-22T04:02:11.470Z,4.30
2023-04-22T04:04:38.181Z,4.40
2023-04-22T04:07:04.361Z,4.90
2023-04-22T04:09:30.290Z,3.90
2023-04-22T04:11:57.594Z,4.50
2023-04-22T04:14:24.750Z,5.70
2023-04-22T04:16:51.544Z,6.00
2023-04-22T04:19:24.233Z,4.80
2023-04-22T04:21:50.806Z,6.20
2023-04-22T04:24:16.784Z,5.80
2023-04-22T04:26:48.284Z,5.30
2023-04-22T04:29:20.794Z,6.30
2023-04-22T04:31:55.164Z,5.10
2023-04-22T04:34:22.259Z,5.60
2023-04-22T04:36:48.694Z,5.20
2023-04-22T04:39:19.884Z,5.10
2023-04-22T04:41:48.382Z,4.80
2023-04-22T04:44:15.448Z,5.00
2023-04-22T04:46:41.811Z,6.40
2023-04-22T04:49:08.867Z,4.70
2023-04-22T04:51:40.624Z,5.70
2023-04-22T04:54:06.454Z,5.70
2023-04-22T04:56:35.185Z,5.30
2023-04-22T04:59:01.470Z,5.80
2023-04-22T05:01:28.105Z,5.60
2023-04-22T05:03:56.741Z,29.60
2023-04-22T05:06:23.500Z,26.30
2023-04-22T05:08:53.896Z,8.90
2023-04-22T05:11:20.089Z,6.10
2023-04-22T05:13:47.763Z,5.20
2023-04-22T05:16:18.361Z,5.40
2023-04-22T05:18:45.353Z,6.20
2023-04-22T05:21:12.089Z,6.00
2023-04-22T05:23:38.963Z,4.50
2023-04-22T05:26:05.362Z,4.00
2023-04-22T05:28:31.267Z,4.50
2023-04-22T05:30:57.207Z,4.60
2023-04-22T05:33:24.814Z,4.50
2023-04-22T05:35:51.716Z,21.80
2023-04-22T05:38:17.832Z,8.10
2023-04-22T05:40:44.032Z,6.20
2023-04-22T05:43:11.000Z,7.90
2023-04-22T05:45:38.481Z,4.70
2023-04-22T05:48:05.190Z,4.70
2023-04-22T05:50:34.305Z,5.60
2023-04-22T05:53:05.145Z,5.00
2023-04-22T05:55:31.218Z,5.20
2023-04-22T05:57:57.271Z,3.60
2023-04-22T06:00:38.352Z,4.80
2023-04-22T06:03:12.353Z,4.00
2023-04-22T06:05:38.550Z,5.10
2023-04-22T06:08:04.718Z,4.00
2023-04-22T06:10:30.733Z,5.00
2023-04-22T06:12:56.734Z,5.10
2023-04-22T06:15:22.682Z,3.10
2023-04-22T06:17:48.865Z,6.40
2023-04-22T06:20:14.847Z,4.70
2023-04-22T06:22:40.738Z,3.20
2023-04-22T06:25:08.766Z,4.10
2023-04-22T06:27:34.763Z,3.90
2023-04-22T06:30:00.860Z,3.20
2023-04-22T06:32:28.467Z,3.80
2023-04-22T06:34:54.332Z,3.20
2023-04-22T06:37:20.421Z,9.60
2023-04-22T06:39:46.827Z,4.40
2023-04-22T06:42:39.728Z,5.40
2023-04-22T06:45:24.813Z,14.80
2023-04-22T06:48:03.349Z,5.30
2023-04-22T06:50:41.238Z,4.70
2023-04-22T06:53:09.196Z,4.90
2023-04-22T06:55:35.614Z,2.90
2023-04-22T06:58:01.686Z,3.50
2023-04-22T07:00:28.437Z,6.20
2023-04-22T07:02:54.523Z,4.00
2023-04-22T07:05:21.339Z,4.10
2023-04-22T07:07:47.398Z,4.60
2023-04-22T07:10:17.362Z,5.00
2023-04-22T07:12:54.580Z,4.50
2023-04-22T07:15:20.553Z,4.60
2023-04-22T07:17:46.535Z,5.40
2023-04-22T07:20:12.563Z,3.40
2023-04-22T07:22:38.624Z,4.20
2023-04-22T07:25:06.713Z,3.30
2023-04-22T07:27:37.019Z,2.70
2023-04-22T07:30:05.563Z,3.80
2023-04-22T07:32:31.398Z,3.50
2023-04-22T07:34:57.267Z,4.00
2023-04-22T07:37:23.280Z,4.00
2023-04-22T07:39:49.255Z,5.00
2023-04-22T07:42:15.554Z,4.70
2023-04-22T07:44:41.464Z,4.50
2023-04-22T07:47:07.863Z,4.20
2023-04-22T07:49:33.906Z,9.00
2023-04-22T07:51:59.843Z,5.50
2023-04-22T07:54:25.714Z,4.00
2023-04-22T07:56:51.648Z,4.70
2023-04-22T07:59:17.506Z,4.30
2023-04-22T08:01:45.577Z,5.50
2023-04-22T08:04:12.573Z,5.60
2023-04-22T08:06:38.849Z,4.00
2023-04-22T08:09:04.982Z,4.90
2023-04-22T08:11:30.974Z,4.10
2023-04-22T08:13:56.857Z,3.80
2023-04-22T08:16:23.011Z,5.30
2023-04-22T08:18:49.104Z,5.80
2023-04-22T08:21:15.049Z,7.40
2023-04-22T08:23:41.075Z,4.70
2023-04-22T08:26:07.738Z,4.20
2023-04-22T08:28:34.786Z,5.30
2023-04-22T08:31:00.725Z,4.80
2023-04-22T08:33:27.402Z,4.20
2023-04-22T08:35:53.398Z,4.70
2023-04-22T08:38:19.320Z,5.00
2023-04-22T08:40:45.629Z,4.60
2023-04-22T08:43:12.160Z,5.00
2023-04-22T08:45:39.898Z,4.60
2023-04-22T08:48:08.791Z,4.20
2023-04-22T08:50:40.766Z,4.50
2023-04-22T08:53:06.728Z,4.10
2023-04-22T08:55:35.173Z,4.90
2023-04-22T08:58:04.006Z,3.70
2023-04-22T09:00:31.690Z,4.00
2023-04-22T09:03:04.755Z,4.40
2023-04-22T09:05:35.754Z,4.50
2023-04-22T09:08:03.366Z,3.70
2023-04-22T09:10:33.991Z,3.80
2023-04-22T09:13:00.740Z,6.50
2023-04-22T09:15:27.032Z,3.80
2023-04-22T09:17:53.451Z,4.60
2023-04-22T09:20:26.869Z,4.70
2023-04-22T09:22:55.821Z,5.00
2023-04-22T09:25:26.257Z,4.70
2023-04-22T09:27:58.843Z,5.80
2023-04-22T09:30:34.227Z,5.10
2023-04-22T09:33:03.739Z,5.20
2023-04-22T09:35:32.812Z,5.50
2023-04-22T09:38:02.174Z,5.60
2023-04-22T09:40:31.616Z,5.00
2023-04-22T09:43:01.538Z,7.00
2023-04-22T09:45:37.514Z,4.70
2023-04-22T09:48:10.545Z,5.20
2023-04-22T09:50:39.910Z,4.70
2023-04-22T09:53:09.424Z,4.70
2023-04-22T09:55:40.936Z,4.70
2023-04-22T09:58:10.552Z,4.50
2023-04-22T10:00:53.540Z,5.40
2023-04-22T10:03:19.997Z,4.30
2023-04-22T10:05:46.266Z,4.70
2023-04-22T10:08:15.440Z,3.70
2023-04-22T10:10:43.046Z,3.20
2023-04-22T10:13:09.165Z,3.60
2023-04-22T10:15:40.797Z,3.00
2023-04-22T10:18:12.289Z,7.80
2023-04-22T10:20:40.865Z,4.70
2023-04-22T10:23:18.980Z,3.40
2023-04-22T10:25:55.427Z,3.70
2023-04-22T10:28:24.299Z,3.10
2023-04-22T10:30:51.025Z,4.30
2023-04-22T10:33:34.124Z,3.30
2023-04-22T10:36:17.040Z,4.50
2023-04-22T10:38:52.291Z,2.80
2023-04-22T10:41:24.721Z,3.60
2023-04-22T10:43:58.929Z,3.30
2023-04-22T10:46:34.934Z,4.00
2023-04-22T10:49:17.748Z,3.60
2023-04-22T10:51:48.558Z,3.80
2023-04-22T10:54:36.253Z,3.00
2023-04-22T10:57:11.282Z,5.20
2023-04-22T10:59:49.542Z,3.40
2023-04-22T11:02:18.306Z,4.10
2023-04-22T11:04:45.081Z,6.40
2023-04-22T11:07:21.853Z,3.40
2023-04-22T11:10:06.355Z,2.80
2023-04-22T11:12:35.072Z,3.20
2023-04-22T11:15:05.555Z,4.30
2023-04-22T11:17:31.821Z,3.30
2023-04-22T11:19:58.476Z,3.40
2023-04-22T11:22:24.976Z,3.10
2023-04-22T11:24:59.273Z,3.10
2023-04-22T11:27:26.781Z,3.80
2023-04-22T11:30:12.636Z,2.40
2023-04-22T11:32:42.600Z,3.30
2023-04-22T11:35:11.865Z,2.50
2023-04-22T11:37:55.397Z,3.00
2023-04-22T11:42:56.083Z,3.70
2023-04-22T11:45:22.595Z,5.40
2023-04-22T11:47:50.887Z,3.70
2023-04-22T11:50:21.384Z,3.70
2023-04-22T11:53:02.780Z,3.70
2023-04-22T11:55:34.939Z,3.80
2023-04-22T11:58:09.224Z,3.50
2023-04-22T12:00:41.274Z,3.50
2023-04-22T12:03:16.959Z,2.80
2023-04-22T12:06:02.585Z,3.10
2023-04-22T12:08:36.083Z,5.10
2023-04-22T12:11:06.402Z,2.80
2023-04-22T12:13:45.543Z,2.80
2023-04-22T12:16:18.518Z,2.50
2023-04-22T12:18:47.416Z,1.80
2023-04-22T12:21:21.515Z,2.80
2023-04-22T12:23:51.502Z,3.80
2023-04-22T12:26:22.113Z,3.20
2023-04-22T12:28:50.476Z,3.30
2023-04-22T12:31:17.779Z,2.60
2023-04-22T12:33:45.640Z,3.10
2023-04-22T12:36:12.158Z,3.20
2023-04-22T12:38:38.385Z,4.00
2023-04-22T12:41:06.055Z,4.80
2023-04-22T12:43:35.591Z,4.90
2023-04-22T12:46:06.868Z,2.90
2023-04-22T12:48:33.076Z,3.30
2023-04-22T12:50:59.435Z,2.70
2023-04-22T12:53:27.301Z,2.60
2023-04-22T12:55:54.088Z,3.20
2023-04-22T12:58:20.314Z,2.80
2023-04-22T13:00:46.317Z,3.90
2023-04-22T13:03:12.536Z,3.30
2023-04-22T13:05:41.403Z,4.20
2023-04-22T13:08:08.205Z,4.00
2023-04-22T13:10:34.915Z,3.20
2023-04-22T13:13:15.945Z,3.70
2023-04-22T13:15:46.180Z,3.90
2023-04-22T13:18:12.253Z,5.00
2023-04-22T13:20:39.376Z,3.60
2023-04-22T13:23:05.260Z,3.00
2023-04-22T13:25:31.569Z,3.70
2023-04-22T13:27:57.500Z,2.90
2023-04-22T13:30:23.420Z,4.40
2023-04-22T13:32:49.606Z,4.10
2023-04-22T13:35:17.802Z,3.30
2023-04-22T13:37:43.841Z,3.30
2023-04-22T13:40:10.406Z,3.60
2023-04-22T13:42:36.280Z,3.30
2023-04-22T13:45:02.421Z,3.60
2023-04-22T13:47:28.687Z,2.50
2023-04-22T13:49:54.632Z,3.50
2023-04-22T13:52:21.033Z,3.10
2023-04-22T13:54:46.955Z,2.90
2023-04-22T13:57:12.829Z,3.60
2023-04-22T13:59:40.786Z,5.00
2023-04-22T14:02:07.286Z,3.70
2023-04-22T14:04:33.270Z,3.10
2023-04-22T14:06:59.201Z,4.40
2023-04-22T14:09:25.590Z,3.30
2023-04-22T14:11:51.481Z,3.30
2023-04-22T14:14:17.378Z,5.00
2023-04-22T14:16:43.307Z,4.10
2023-04-22T14:19:09.508Z,4.60
2023-04-22T14:21:35.514Z,4.80
2023-04-22T14:24:01.488Z,4.10
2023-04-22T14:26:27.435Z,5.40
2023-04-22T14:28:53.328Z,2.40
2023-04-22T14:31:19.391Z,3.20
2023-04-22T14:33:45.350Z,2.90
2023-04-22T14:36:11.285Z,3.50
2023-04-22T14:38:37.291Z,4.20
2023-04-22T14:41:05.404Z,4.20
2023-04-22T14:43:33.249Z,3.60
2023-04-22T14:46:00.240Z,3.80
2023-04-22T14:48:30.197Z,5.00
2023-04-22T14:50:57.465Z,3.90
2023-04-22T14:53:23.375Z,3.60
2023-04-22T14:55:49.225Z,4.20
2023-04-22T14:58:15.050Z,3.60
2023-04-22T15:00:41.010Z,4.40
2023-04-22T15:03:07.013Z,4.30
2023-04-22T15:05:32.963Z,3.40
2023-04-22T15:07:59.001Z,4.20
2023-04-22T15:10:26.149Z,4.80
2023-04-22T15:12:53.313Z,4.60
2023-04-22T15:15:19.494Z,3.90
2023-04-22T15:17:45.702Z,5.20
2023-04-22T15:20:13.590Z,3.90
2023-04-22T15:22:40.899Z,4.60
2023-04-22T15:25:09.188Z,4.90
2023-04-22T15:27:36.801Z,4.70
2023-04-22T15:30:05.353Z,5.90
2023-04-22T15:32:31.534Z,4.80
2023-04-22T15:34:57.418Z,4.50
2023-04-22T15:37:23.543Z,5.30
2023-04-22T15:39:49.440Z,3.70
2023-04-22T15:42:15.324Z,5.30
2023-04-22T15:44:42.552Z,3.40
2023-04-22T15:47:09.032Z,4.10
2023-04-22T15:49:37.832Z,4.80
2023-04-22T15:52:04.361Z,2.90
2023-04-22T15:54:30.292Z,4.00
2023-04-22T15:56:57.012Z,2.80
2023-04-22T15:59:22.926Z,3.50
2023-04-22T16:02:13.848Z,4.20
2023-04-22T16:04:40.155Z,4.20
2023-04-22T16:07:06.327Z,4.60
2023-04-22T16:09:32.184Z,4.50
2023-04-22T16:12:02.453Z,4.60
2023-04-22T16:14:28.324Z,4.00
2023-04-22T16:16:54.349Z,4.70
2023-04-22T16:19:20.339Z,4.10
2023-04-22T16:21:46.268Z,4.00
2023-04-22T16:24:13.870Z,4.40
2023-04-22T16:26:42.339Z,3.60
2023-04-22T16:29:08.244Z,3.90
2023-04-22T16:31:34.452Z,4.60
2023-04-22T16:34:00.463Z,3.60
2023-04-22T16:36:26.354Z,4.80
2023-04-22T16:38:52.219Z,4.40
2023-04-22T16:41:19.413Z,5.60
2023-04-22T16:43:45.399Z,4.90
2023-04-22T16:46:11.416Z,6.60
2023-04-22T16:48:37.429Z,5.40
2023-04-22T16:51:03.746Z,6.30
2023-04-22T16:53:30.497Z,5.50
2023-04-22T16:55:56.725Z,5.20
2023-04-22T16:58:22.841Z,4.50
2023-04-22T17:00:48.695Z,4.10
2023-04-22T17:03:15.082Z,4.20
2023-04-22T17:05:41.181Z,4.60
2023-04-22T17:08:07.064Z,5.60
2023-04-22T17:10:34.291Z,5.80
2023-04-22T17:13:00.748Z,5.30
2023-04-22T17:15:26.772Z,5.80
2023-04-22T17:17:52.665Z,4.30
2023-04-22T17:20:18.605Z,4.90
2023-04-22T17:22:44.461Z,8.40
2023-04-22T17:25:10.373Z,6.00
2023-04-22T17:27:36.301Z,5.50
2023-04-22T17:30:02.711Z,5.60
2023-04-22T17:32:28.743Z,5.50
2023-04-22T17:34:54.803Z,5.40
2023-04-22T17:37:20.771Z,4.70
2023-04-22T17:39:46.778Z,5.20
2023-04-22T17:42:13.442Z,5.10
2023-04-22T17:44:40.490Z,6.50
2023-04-22T17:47:07.516Z,6.70
2023-04-22T17:49:33.735Z,5.40
2023-04-22T17:51:59.778Z,6.20
2023-04-22T17:54:25.675Z,6.00
2023-04-22T17:56:51.623Z,4.60
2023-04-22T17:59:18.005Z,4.80
2023-04-22T18:01:44.073Z,8.40
2023-04-22T18:04:10.131Z,6.30
2023-04-22T18:06:36.219Z,5.30
2023-04-22T18:09:02.180Z,5.90
2023-04-22T18:11:28.185Z,5.40
2023-04-22T18:13:54.544Z,7.60
2023-04-22T18:16:20.838Z,6.00
2023-04-22T18:18:46.777Z,6.30
2023-04-22T18:21:12.772Z,6.30
2023-04-22T18:23:38.721Z,5.20
2023-04-22T18:26:08.994Z,6.20
2023-04-22T18:28:38.940Z,6.80
2023-04-22T18:31:07.322Z,5.60
2023-04-22T18:33:33.850Z,4.70
2023-04-22T18:36:00.228Z,5.40
2023-04-22T18:38:26.512Z,8.30
2023-04-22T18:40:54.264Z,9.10
2023-04-22T18:43:20.279Z,7.00
2023-04-22T18:45:46.190Z,10.40
2023-04-22T18:48:12.098Z,6.40
2023-04-22T18:50:38.091Z,6.40
2023-04-22T18:53:04.133Z,6.90
2023-04-22T18:55:30.161Z,5.80
2023-04-22T18:57:56.006Z,7.10
2023-04-22T19:00:22.184Z,6.70
2023-04-22T19:02:48.343Z,6.00
2023-04-22T19:05:14.466Z,7.80
2023-04-22T19:07:42.558Z,7.70
2023-04-22T19:10:10.622Z,7.60
2023-04-22T19:12:36.496Z,10.70
2023-04-22T19:15:02.763Z,12.30
2023-04-22T19:17:28.929Z,10.70
2023-04-22T19:19:54.892Z,10.70
2023-04-22T19:22:21.581Z,10.60
2023-04-22T19:24:47.497Z,12.50
2023-04-22T19:27:14.105Z,12.80
2023-04-22T19:29:42.251Z,13.60
2023-04-22T19:32:10.224Z,11.70
2023-04-22T19:34:37.556Z,10.20
2023-04-22T19:37:03.935Z,11.00
2023-04-22T19:39:30.557Z,11.90
2023-04-22T19:41:57.747Z,10.80
2023-04-22T19:44:24.557Z,10.20
2023-04-22T19:46:50.555Z,9.00
2023-04-22T19:49:17.388Z,7.90
2023-04-22T19:51:45.171Z,8.70
2023-04-22T19:54:13.129Z,9.50
2023-04-22T19:56:40.640Z,10.60
2023-04-22T19:59:07.183Z,9.10
2023-04-22T20:01:33.930Z,7.70
2023-04-22T20:04:00.957Z,7.80
2023-04-22T20:06:30.952Z,6.80
2023-04-22T20:08:59.099Z,6.30
2023-04-22T20:11:25.775Z,7.10
2023-04-22T20:13:52.541Z,6.50
2023-04-22T20:16:20.064Z,8.10
2023-04-22T20:18:46.135Z,6.50
2023-04-22T20:21:13.531Z,5.90
2023-04-22T20:23:41.657Z,6.80
2023-04-22T20:26:08.692Z,5.70
2023-04-22T20:28:51.158Z,7.00
2023-04-22T20:31:19.796Z,6.10
2023-04-22T20:33:46.130Z,5.60
2023-04-22T20:36:16.333Z,7.10
2023-04-22T20:38:46.674Z,7.10
2023-04-22T20:41:13.088Z,5.90
2023-04-22T20:43:38.979Z,7.30
2023-04-22T20:46:04.940Z,5.70
2023-04-22T20:48:30.822Z,6.00
2023-04-22T20:50:56.771Z,6.20
2023-04-22T20:53:23.911Z,5.60
2023-04-22T20:55:50.262Z,4.70
2023-04-22T20:58:16.330Z,5.40
2023-04-22T21:00:42.755Z,6.40
2023-04-22T21:03:09.485Z,5.30
2023-04-22T21:05:42.561Z,6.50
2023-04-22T21:08:25.177Z,6.40
2023-04-22T21:10:54.109Z,6.30
2023-04-22T21:13:21.151Z,8.10
2023-04-22T21:15:58.584Z,5.60
2023-04-22T21:18:25.927Z,5.20
2023-04-22T21:20:53.223Z,5.60
2023-04-22T21:23:19.918Z,6.60
2023-04-22T21:25:49.842Z,6.00
2023-04-22T21:28:16.969Z,6.00
2023-04-22T21:30:43.869Z,6.90
2023-04-22T21:33:10.069Z,6.30
2023-04-22T21:35:36.108Z,7.20
2023-04-22T21:38:02.395Z,7.00
2023-04-22T21:40:28.600Z,6.30
2023-04-22T21:42:54.750Z,8.50
2023-04-22T21:45:20.828Z,7.10
2023-04-22T21:47:46.728Z,6.80
2023-04-22T21:50:12.724Z,7.70
2023-04-22T21:52:38.824Z,6.50
2023-04-22T21:55:05.952Z,8.00
2023-04-22T21:57:31.906Z,6.30
2023-04-22T21:59:57.865Z,5.90
2023-04-22T22:02:25.807Z,6.50
2023-04-22T22:04:52.254Z,5.80
2023-04-22T22:07:18.906Z,8.90
2023-04-22T22:09:45.769Z,7.30
2023-04-22T22:12:28.729Z,5.50
2023-04-22T22:14:54.784Z,5.70
2023-04-22T22:17:20.730Z,5.70
2023-04-22T22:19:48.310Z,6.20
2023-04-22T22:22:14.172Z,6.90
2023-04-22T22:24:40.297Z,7.00
2023-04-22T22:27:07.430Z,8.40
2023-04-22T22:29:33.551Z,7.00
2023-04-22T22:31:59.456Z,7.50
2023-04-22T22:34:25.438Z,6.30
2023-04-22T22:36:51.396Z,7.20
2023-04-22T22:39:17.441Z,7.60
2023-04-22T22:41:44.044Z,7.40
2023-04-22T22:44:10.427Z,8.70
2023-04-22T22:46:37.091Z,7.40
2023-04-22T22:49:02.963Z,7.30
2023-04-22T22:51:29.255Z,7.60
2023-04-22T22:53:55.411Z,5.70
2023-04-22T22:56:21.287Z,7.20
2023-04-22T22:58:47.548Z,7.40
2023-04-22T23:01:14.862Z,5.30
2023-04-22T23:03:41.013Z,7.50
2023-04-22T23:06:07.208Z,6.80
2023-04-22T23:08:33.201Z,6.40
2023-04-22T23:11:00.143Z,5.90
2023-04-22T23:13:27.180Z,6.00
2023-04-22T23:15:53.131Z,6.20
2023-04-22T23:18:19.207Z,7.00
2023-04-22T23:20:47.339Z,6.10
2023-04-22T23:23:15.955Z,6.40
2023-04-22T23:25:42.276Z,6.50
2023-04-22T23:28:08.643Z,7.80
2023-04-22T23:30:34.997Z,6.50
2023-04-22T23:33:03.797Z,6.40
2023-04-22T23:35:32.518Z,6.30
2023-04-22T23:38:00.115Z,6.80
2023-04-22T23:40:26.366Z,6.80
2023-04-22T23:42:52.292Z,6.50
2023-04-22T23:45:18.161Z,6.70
2023-04-22T23:47:44.187Z,6.50
2023-04-22T23:50:11.406Z,5.40
2023-04-22T23:52:40.416Z,7.90
2023-04-22T23:55:09.649Z,8.30
2023-04-22T23:57:38.894Z,6.00
